createdAt,value
2023-07-18T00:04:31.648Z,0.68
2023-07-18T00:09:33.590Z,0.73
2023-07-18T00:14:35.452Z,0.60
2023-07-18T00:19:38.790Z,0.60
2023-07-18T00:24:40.631Z,0.60
2023-07-18T00:29:42.479Z,0.57
2023-07-18T00:34:45.504Z,0.50
2023-07-18T00:39:47.502Z,0.50
2023-07-18T00:44:50.936Z,0.60
2023-07-18T00:49:52.952Z,0.60
2023-07-18T00:54:55.305Z,0.60
2023-07-18T00:59:57.451Z,0.50
2023-07-18T01:04:59.289Z,0.73
2023-07-18T01:10:25.567Z,0.65
2023-07-18T01:15:31.044Z,0.60
2023-07-18T01:20:34.500Z,0.85
2023-07-18T01:25:38.624Z,0.85
2023-07-18T01:30:40.496Z,0.95
2023-07-18T01:35:42.369Z,0.77
2023-07-18T01:40:44.302Z,0.60
2023-07-18T01:45:46.150Z,1.02
2023-07-18T01:50:47.987Z,0.98
2023-07-18T01:55:51.003Z,0.80
2023-07-18T02:00:52.878Z,0.63
2023-07-18T02:05:54.753Z,0.80
2023-07-18T02:10:59.080Z,0.80
2023-07-18T02:16:00.935Z,1.08
2023-07-18T02:21:03.865Z,0.55
2023-07-18T02:26:05.724Z,0.70
2023-07-18T02:31:08.436Z,0.95
2023-07-18T02:36:10.712Z,0.75
2023-07-18T02:41:12.542Z,0.90
2023-07-18T02:46:14.947Z,1.00
2023-07-18T02:51:17.480Z,0.70
2023-07-18T02:56:19.644Z,0.88
2023-07-18T03:01:21.971Z,0.70
2023-07-18T03:06:25.081Z,1.00
2023-07-18T03:11:26.992Z,0.70
2023-07-18T03:16:29.401Z,0.75
2023-07-18T03:21:31.265Z,0.85
2023-07-18T03:26:33.076Z,0.88
2023-07-18T03:31:35.269Z,0.80
2023-07-18T03:36:38.842Z,0.88
2023-07-18T03:41:40.755Z,0.73
2023-07-18T03:46:42.710Z,0.93
2023-07-18T03:51:44.645Z,0.68
2023-07-18T03:56:46.564Z,0.70
2023-07-18T04:01:48.442Z,0.80
2023-07-18T04:06:50.306Z,0.70
2023-07-18T04:11:52.258Z,0.63
2023-07-18T04:16:54.112Z,0.80
2023-07-18T04:21:55.965Z,0.70
2023-07-18T04:26:57.888Z,0.75
2023-07-18T04:31:59.716Z,0.75
2023-07-18T04:37:01.744Z,0.98
2023-07-18T04:42:03.851Z,1.08
2023-07-18T04:47:06.085Z,0.85
2023-07-18T04:52:08.782Z,0.77
2023-07-18T04:57:10.617Z,0.95
2023-07-18T05:02:12.468Z,0.70
2023-07-18T05:07:14.735Z,0.88
2023-07-18T05:12:16.599Z,1.00
2023-07-18T05:17:18.578Z,0.80
2023-07-18T05:22:20.716Z,1.00
2023-07-18T05:27:23.177Z,0.80
2023-07-18T05:32:25.252Z,0.80
2023-07-18T05:37:29.940Z,0.90
2023-07-18T05:42:32.334Z,1.00
2023-07-18T05:47:35.315Z,1.00
2023-07-18T05:52:37.357Z,1.10
2023-07-18T05:57:39.512Z,1.00
2023-07-18T06:02:41.560Z,1.35
2023-07-18T06:07:43.465Z,0.98
2023-07-18T06:12:45.313Z,0.90
2023-07-18T06:17:47.308Z,1.00
2023-07-18T06:22:49.378Z,0.80
2023-07-18T06:27:51.225Z,0.98
2023-07-18T06:32:53.195Z,1.00
2023-07-18T06:37:55.153Z,1.15
2023-07-18T06:42:56.998Z,1.30
2023-07-18T06:47:58.849Z,0.70
2023-07-18T06:53:00.728Z,1.23
2023-07-18T06:58:02.651Z,1.35
2023-07-18T07:03:04.617Z,0.90
2023-07-18T07:08:10.176Z,1.13
2023-07-18T07:13:13.491Z,1.10
2023-07-18T07:18:15.356Z,0.95
2023-07-18T07:23:18.028Z,1.33
2023-07-18T07:28:20.632Z,1.25
2023-07-18T07:33:22.584Z,1.35
2023-07-18T07:38:24.665Z,1.20
2023-07-18T07:43:26.540Z,1.38
2023-07-18T07:48:28.385Z,1.10
2023-07-18T07:53:30.574Z,1.88
2023-07-18T07:58:32.492Z,1.20
2023-07-18T08:03:34.319Z,1.10
2023-07-18T08:08:36.622Z,1.00
2023-07-18T08:13:38.533Z,1.00
2023-07-18T08:18:40.452Z,1.20
2023-07-18T08:23:42.317Z,1.25
2023-07-18T08:28:44.300Z,1.30
2023-07-18T08:33:46.685Z,1.00
2023-07-18T08:38:51.371Z,1.58
2023-07-18T08:43:53.908Z,1.75
2023-07-18T08:48:56.395Z,1.20
2023-07-18T08:53:58.691Z,1.00
2023-07-18T08:59:02.373Z,0.90
2023-07-18T09:04:05.141Z,1.30
2023-07-18T09:09:15.721Z,1.23
2023-07-18T09:14:26.616Z,1.10
2023-07-18T09:19:49.932Z,1.23
2023-07-18T09:24:51.910Z,1.20
2023-07-18T09:29:53.809Z,1.17
2023-07-18T09:34:57.405Z,1.17
2023-07-18T09:40:00.460Z,1.33
2023-07-18T09:45:11.057Z,1.10
2023-07-18T09:50:15.178Z,1.17
2023-07-18T09:55:23.285Z,1.02
2023-07-18T10:00:26.471Z,1.55
2023-07-18T10:05:28.893Z,1.17
2023-07-18T10:10:30.714Z,1.60
2023-07-18T10:16:11.251Z,1.30
2023-07-18T10:21:16.177Z,1.17
2023-07-18T10:26:19.063Z,1.25
2023-07-18T10:31:31.607Z,1.20
2023-07-18T10:36:35.531Z,1.42
2023-07-18T10:41:37.997Z,1.10
2023-07-18T10:46:40.998Z,1.33
2023-07-18T10:51:43.143Z,1.15
2023-07-18T10:56:45.142Z,1.67
2023-07-18T11:01:47.675Z,1.65
2023-07-18T11:06:51.468Z,1.33
2023-07-18T11:11:53.303Z,1.38
2023-07-18T11:16:56.221Z,1.58
2023-07-18T11:21:58.740Z,1.25
2023-07-18T11:27:20.643Z,0.95
2023-07-18T11:32:42.153Z,1.23
2023-07-18T11:37:44.136Z,1.55
2023-07-18T11:42:48.830Z,1.25
2023-07-18T11:47:55.587Z,1.33
2023-07-18T11:52:59.404Z,1.13
2023-07-18T11:58:01.481Z,1.52
2023-07-18T12:03:04.043Z,1.25
2023-07-18T12:08:06.149Z,1.38
2023-07-18T12:13:07.981Z,1.38
2023-07-18T12:18:09.869Z,1.25
2023-07-18T12:23:11.792Z,1.55
2023-07-18T12:28:13.990Z,1.30
2023-07-18T12:33:16.909Z,1.33
2023-07-18T12:38:19.697Z,1.13
2023-07-18T12:43:21.512Z,1.67
2023-07-18T12:48:23.357Z,1.48
2023-07-18T12:53:25.179Z,1.10
2023-07-18T12:58:27.085Z,1.30
2023-07-18T13:03:30.907Z,1.42
2023-07-18T13:08:35.920Z,1.55
2023-07-18T13:13:37.767Z,1.25
2023-07-18T13:18:39.610Z,1.35
2023-07-18T13:23:41.614Z,1.45
2023-07-18T13:28:43.458Z,1.25
2023-07-18T13:33:45.354Z,1.40
2023-07-18T13:38:47.208Z,1.30
2023-07-18T13:43:49.055Z,1.42
2023-07-18T13:48:50.970Z,1.33
2023-07-18T13:53:52.905Z,1.40
2023-07-18T13:58:55.404Z,1.38
2023-07-18T14:03:57.358Z,1.13
2023-07-18T14:08:59.470Z,1.20
2023-07-18T14:14:01.464Z,1.10
2023-07-18T14:19:03.401Z,1.17
2023-07-18T14:24:05.507Z,1.40
2023-07-18T14:29:07.387Z,1.50
2023-07-18T14:34:09.275Z,1.20
2023-07-18T14:39:11.101Z,1.33
2023-07-18T14:44:14.571Z,1.13
2023-07-18T14:49:16.640Z,1.40
2023-07-18T14:54:18.670Z,1.27
2023-07-18T14:59:20.528Z,1.10
2023-07-18T15:04:22.361Z,1.35
2023-07-18T15:09:25.604Z,1.38
2023-07-18T15:14:27.448Z,1.13
2023-07-18T15:19:29.287Z,1.38
2023-07-18T15:24:31.114Z,1.35
2023-07-18T15:29:32.950Z,1.13
2023-07-18T15:34:34.967Z,1.27
2023-07-18T15:39:39.062Z,1.40
2023-07-18T15:44:40.883Z,1.40
2023-07-18T15:49:45.526Z,1.60
2023-07-18T15:54:47.379Z,1.40
2023-07-18T15:59:49.203Z,1.55
2023-07-18T16:04:51.051Z,1.63
2023-07-18T16:09:56.788Z,1.50
2023-07-18T16:15:00.128Z,1.05
2023-07-18T16:20:02.146Z,1.20
2023-07-18T16:25:08.942Z,1.40
2023-07-18T16:30:11.446Z,1.30
2023-07-18T16:35:13.328Z,1.20
2023-07-18T16:40:15.361Z,1.77
2023-07-18T16:45:17.258Z,1.30
2023-07-18T16:50:19.424Z,1.20
2023-07-18T16:55:21.271Z,1.10
2023-07-18T17:00:23.331Z,1.00
2023-07-18T17:05:25.486Z,1.77
2023-07-18T17:10:27.931Z,1.08
2023-07-18T17:15:29.879Z,1.10
2023-07-18T17:20:31.789Z,1.10
2023-07-18T17:25:34.199Z,1.48
2023-07-18T17:30:36.135Z,1.15
2023-07-18T17:35:38.777Z,1.20
2023-07-18T17:40:40.637Z,1.33
2023-07-18T17:45:42.523Z,1.13
2023-07-18T17:50:44.620Z,0.95
2023-07-18T17:55:46.508Z,1.15
2023-07-18T18:00:48.406Z,1.40
2023-07-18T18:05:51.688Z,1.10
2023-07-18T18:10:53.925Z,1.05
2023-07-18T18:16:07.443Z,1.40
2023-07-18T18:21:12.027Z,1.00
2023-07-18T18:26:13.939Z,0.90
2023-07-18T18:31:16.451Z,1.23
2023-07-18T18:36:24.021Z,1.17
2023-07-18T18:41:25.980Z,1.42
2023-07-18T18:46:27.888Z,1.27
2023-07-18T18:51:29.796Z,1.27
2023-07-18T18:56:31.700Z,1.08
2023-07-18T19:01:33.614Z,1.40
2023-07-18T19:06:35.490Z,1.05
2023-07-18T19:11:37.393Z,1.35
2023-07-18T19:16:40.949Z,1.73
2023-07-18T19:21:43.365Z,1.48
2023-07-18T19:26:45.186Z,1.38
2023-07-18T19:31:47.072Z,1.50
2023-07-18T19:36:49.333Z,1.50
2023-07-18T19:41:51.184Z,1.33
2023-07-18T19:46:53.108Z,1.48
2023-07-18T19:51:57.821Z,1.45
2023-07-18T19:56:59.836Z,1.70
2023-07-18T20:02:01.699Z,1.23
2023-07-18T20:07:03.779Z,1.77
2023-07-18T20:12:06.000Z,1.40
2023-07-18T20:17:07.883Z,1.42
2023-07-18T20:22:09.721Z,1.60
2023-07-18T20:27:11.694Z,1.85
2023-07-18T20:32:13.689Z,1.27
2023-07-18T20:37:15.819Z,1.30
2023-07-18T20:42:18.152Z,1.30
2023-07-18T20:47:20.323Z,1.42
2023-07-18T20:52:22.768Z,1.60
2023-07-18T20:57:24.800Z,1.52
2023-07-18T21:02:26.953Z,1.20
2023-07-18T21:07:29.214Z,2.08
2023-07-18T21:12:31.336Z,1.55
2023-07-18T21:17:33.336Z,1.80
2023-07-18T21:22:35.250Z,1.48
2023-07-18T21:27:37.178Z,1.38
2023-07-18T21:32:39.741Z,1.70
2023-07-18T21:37:42.020Z,1.40
2023-07-18T21:42:44.023Z,1.40
2023-07-18T21:47:46.294Z,1.83
2023-07-18T21:52:48.145Z,2.00
2023-07-18T21:57:50.044Z,1.48
2023-07-18T22:02:52.027Z,1.65
2023-07-18T22:07:53.991Z,1.50
2023-07-18T22:12:55.813Z,1.52
2023-07-18T22:18:09.037Z,2.10
2023-07-18T22:23:18.205Z,1.40
2023-07-18T22:28:20.298Z,1.42
2023-07-18T22:33:22.111Z,1.60
2023-07-18T22:38:23.931Z,1.48
2023-07-18T22:43:25.784Z,1.73
2023-07-18T22:48:27.826Z,1.60
2023-07-18T22:53:29.667Z,1.50
2023-07-18T22:58:31.495Z,1.35
2023-07-18T23:03:34.624Z,1.50
2023-07-18T23:08:36.579Z,1.23
2023-07-18T23:13:38.433Z,1.67
2023-07-18T23:18:40.272Z,1.80
2023-07-18T23:23:42.091Z,1.35
2023-07-18T23:28:43.956Z,1.73
2023-07-18T23:33:45.797Z,1.33
2023-07-18T23:38:47.730Z,1.30
2023-07-18T23:43:49.544Z,2.22
2023-07-18T23:48:51.413Z,1.77
2023-07-18T23:53:53.512Z,2.17
2023-07-18T23:58:55.526Z,1.83
